La rose des vents
Données météo: Semaine 27/04/26 - 03/05/26 (S 18)
Date Horaire Temp. E. Hum. E. P.atmo. Pluie Vent Ø 1mn Direction Ensoleilleme Ev.Tr. Solaire P. de rosée Temp au vent Rafales
27/04/2026 00:00 13,4 °C 93 % 1018,3 hPa 0,0 mm 0,0 km/h (0 Bft) - - 0,00 h 0,000 mm 0 W/m² 12,3 °C 13,4 °C 0,0 km/h (0 Bft)
27/04/2026 01:00 12,9 °C 94 % 1018,3 hPa 0,0 mm 0,0 km/h (0 Bft) - - 0,00 h 0,000 mm 0 W/m² 12,0 °C 12,9 °C 0,0 km/h (0 Bft)
27/04/2026 02:00 12,7 °C 95 % 1018,3 hPa 0,0 mm 0,0 km/h (0 Bft) - - 0,00 h 0,000 mm 0 W/m² 11,9 °C 12,7 °C 0,0 km/h (0 Bft)
27/04/2026 03:00 12,3 °C 96 % 1017,9 hPa 0,0 mm 0,0 km/h (0 Bft) - - 0,00 h 0,000 mm 0 W/m² 11,7 °C 12,3 °C 0,0 km/h (0 Bft)
27/04/2026 04:00 12,3 °C 96 % 1017,8 hPa 0,0 mm 0,0 km/h (0 Bft) - - 0,00 h 0,000 mm 0 W/m² 11,7 °C 12,3 °C 0,0 km/h (0 Bft)
27/04/2026 05:00 12,6 °C 96 % 1017,9 hPa 0,0 mm 0,0 km/h (0 Bft) - - 0,00 h 0,000 mm 0 W/m² 12,0 °C 12,6 °C 0,0 km/h (0 Bft)
27/04/2026 06:00 12,3 °C 96 % 1017,8 hPa 0,0 mm 0,0 km/h (0 Bft) - - 0,02 h 0,000 mm 11 W/m² 11,7 °C 12,3 °C 0,0 km/h (0 Bft)
27/04/2026 07:00 12,2 °C 96 % 1018,0 hPa 0,0 mm 0,0 km/h (0 Bft) - - 0,00 h 0,000 mm 29 W/m² 11,6 °C 12,2 °C 0,0 km/h (0 Bft)
27/04/2026 08:00 13,1 °C 96 % 1018,5 hPa 0,0 mm 0,0 km/h (0 Bft) - - 0,00 h 0,025 mm 59 W/m² 12,4 °C 13,1 °C 0,0 km/h (0 Bft)
27/04/2026 09:00 16,0 °C 89 % 1018,6 hPa 0,0 mm 0,0 km/h (0 Bft) - - 0,93 h 0,025 mm 406 W/m² 14,1 °C 16,0 °C 0,0 km/h (0 Bft)
27/04/2026 10:00 20,2 °C 71 % 1018,6 hPa 0,0 mm 0,0 km/h (0 Bft) - - 1,00 h 0,203 mm 593 W/m² 14,7 °C 20,2 °C 0,0 km/h (0 Bft)
27/04/2026 11:00 21,5 °C 67 % 1018,6 hPa 0,0 mm 0,0 km/h (0 Bft) - - 1,00 h 0,356 mm 721 W/m² 15,1 °C 21,5 °C 0,0 km/h (0 Bft)
27/04/2026 12:00 21,9 °C 65 % 1018,3 hPa 0,0 mm 0,0 km/h (0 Bft) - - 1,00 h 0,432 mm 806 W/m² 15,2 °C 21,9 °C 0,0 km/h (0 Bft)
27/04/2026 13:00 22,5 °C 64 % 1017,8 hPa 0,0 mm 0,0 km/h (0 Bft) - - 1,00 h 0,483 mm 842 W/m² 15,3 °C 22,5 °C 0,0 km/h (0 Bft)
27/04/2026 14:00 22,3 °C 66 % 1017,5 hPa 0,0 mm 0,0 km/h (0 Bft) - - 1,00 h 0,483 mm 821 W/m² 15,6 °C 22,3 °C 0,0 km/h (0 Bft)
27/04/2026 15:00 21,9 °C 67 % 1017,2 hPa 0,0 mm 0,0 km/h (0 Bft) - - 0,82 h 0,483 mm 633 W/m² 15,6 °C 21,9 °C 0,0 km/h (0 Bft)
27/04/2026 16:00 21,5 °C 68 % 1016,6 hPa 0,0 mm 0,0 km/h (0 Bft) - - 0,85 h 0,381 mm 550 W/m² 15,3 °C 21,5 °C 0,0 km/h (0 Bft)
27/04/2026 17:00 21,2 °C 69 % 1016,3 hPa 0,0 mm 0,0 km/h (0 Bft) - - 0,98 h 0,330 mm 444 W/m² 15,2 °C 21,2 °C 0,0 km/h (0 Bft)
27/04/2026 18:00 19,6 °C 74 % 1016,2 hPa 0,0 mm 0,0 km/h (0 Bft) - - 0,18 h 0,254 mm 149 W/m² 14,7 °C 19,6 °C 0,0 km/h (0 Bft)
27/04/2026 19:00 17,7 °C 80 % 1016,1 hPa 0,0 mm 0,0 km/h (0 Bft) - - 0,00 h 0,076 mm 70 W/m² 14,2 °C 17,7 °C 0,0 km/h (0 Bft)
27/04/2026 20:00 16,7 °C 84 % 1016,0 hPa 0,0 mm 0,0 km/h (0 Bft) - - 0,10 h 0,051 mm 16 W/m² 14,0 °C 16,7 °C 0,0 km/h (0 Bft)
27/04/2026 21:00 15,7 °C 87 % 1016,1 hPa 0,0 mm 0,0 km/h (0 Bft) - - 0,00 h 0,000 mm 0 W/m² 13,6 °C 15,7 °C 0,0 km/h (0 Bft)
27/04/2026 22:00 14,7 °C 90 % 1016,1 hPa 0,0 mm 0,0 km/h (0 Bft) - - 0,00 h 0,000 mm 0 W/m² 13,0 °C 14,7 °C 0,0 km/h (0 Bft)
27/04/2026 23:00 14,2 °C 92 % 1016,0 hPa 0,0 mm 0,0 km/h (0 Bft) - - 0,00 h 0,000 mm 0 W/m² 12,9 °C 14,2 °C 0,0 km/h (0 Bft)
28/04/2026 00:00 13,7 °C 93 % 1015,6 hPa 0,0 mm 0,0 km/h (0 Bft) - - 0,00 h 0,000 mm 0 W/m² 12,6 °C 13,7 °C 0,0 km/h (0 Bft)
28/04/2026 01:00 13,3 °C 93 % 1015,4 hPa 0,0 mm 0,0 km/h (0 Bft) - - 0,00 h 0,000 mm 0 W/m² 12,3 °C 13,3 °C 0,0 km/h (0 Bft)
28/04/2026 02:00 13,1 °C 94 % 1015,2 hPa 0,0 mm 0,0 km/h (0 Bft) - - 0,00 h 0,000 mm 0 W/m² 12,3 °C 13,1 °C 0,0 km/h (0 Bft)
28/04/2026 03:00 13,0 °C 95 % 1014,9 hPa 0,0 mm 0,0 km/h (0 Bft) - - 0,00 h 0,000 mm 0 W/m² 12,1 °C 13,0 °C 0,0 km/h (0 Bft)
28/04/2026 04:00 12,6 °C 95 % 1014,8 hPa 0,0 mm 0,0 km/h (0 Bft) - - 0,00 h 0,000 mm 0 W/m² 11,8 °C 12,6 °C 0,0 km/h (0 Bft)
28/04/2026 05:00 12,3 °C 95 % 1014,4 hPa 0,0 mm 0,0 km/h (0 Bft) - - 0,00 h 0,000 mm 0 W/m² 11,5 °C 12,3 °C 0,0 km/h (0 Bft)
28/04/2026 06:00 12,2 °C 95 % 1014,4 hPa 0,0 mm 0,0 km/h (0 Bft) - - 0,00 h 0,000 mm 11 W/m² 11,5 °C 12,2 °C 0,0 km/h (0 Bft)
28/04/2026 07:00 12,5 °C 96 % 1014,6 hPa 0,0 mm 0,0 km/h (0 Bft) - - 0,00 h 0,000 mm 34 W/m² 11,9 °C 12,5 °C 0,0 km/h (0 Bft)
28/04/2026 08:00 13,7 °C 98 % 1015,0 hPa 0,0 mm 0,0 km/h (0 Bft) - - 0,07 h 0,025 mm 82 W/m² 13,3 °C 13,7 °C 0,0 km/h (0 Bft)
28/04/2026 09:00 16,1 °C 93 % 1015,0 hPa 0,0 mm 0,0 km/h (0 Bft) - - 0,83 h 0,051 mm 370 W/m² 15,0 °C 16,1 °C 0,0 km/h (0 Bft)
28/04/2026 10:00 19,3 °C 79 % 1015,0 hPa 0,0 mm 0,0 km/h (0 Bft) - - 0,75 h 0,178 mm 528 W/m² 15,5 °C 19,3 °C 0,0 km/h (0 Bft)
28/04/2026 11:00 21,3 °C 72 % 1014,9 hPa 0,0 mm 0,0 km/h (0 Bft) - - 0,95 h 0,279 mm 759 W/m² 16,0 °C 21,3 °C 0,0 km/h (0 Bft)
28/04/2026 12:00 22,2 °C 68 % 1014,9 hPa 0,0 mm 0,0 km/h (0 Bft) - - 1,00 h 0,432 mm 849 W/m² 15,9 °C 22,2 °C 0,0 km/h (0 Bft)
28/04/2026 13:00 22,5 °C 67 % 1014,8 hPa 0,0 mm 0,0 km/h (0 Bft) - - 1,00 h 0,508 mm 915 W/m² 16,0 °C 22,5 °C 0,0 km/h (0 Bft)
28/04/2026 14:00 22,5 °C 65 % 1014,6 hPa 0,0 mm 0,0 km/h (0 Bft) - - 0,95 h 0,533 mm 870 W/m² 15,7 °C 22,5 °C 0,0 km/h (0 Bft)
28/04/2026 15:00 22,2 °C 66 % 1014,4 hPa 0,0 mm 0,0 km/h (0 Bft) - - 1,00 h 0,533 mm 790 W/m² 15,6 °C 22,2 °C 0,0 km/h (0 Bft)
28/04/2026 16:00 21,6 °C 68 % 1014,0 hPa 0,0 mm 0,0 km/h (0 Bft) - - 0,87 h 0,483 mm 592 W/m² 15,4 °C 21,6 °C 0,0 km/h (0 Bft)
28/04/2026 17:00 21,1 °C 68 % 1013,6 hPa 0,0 mm 0,0 km/h (0 Bft) - - 1,00 h 0,330 mm 419 W/m² 15,0 °C 21,1 °C 0,0 km/h (0 Bft)
28/04/2026 18:00 19,8 °C 71 % 1013,4 hPa 0,0 mm 0,0 km/h (0 Bft) - - 0,48 h 0,254 mm 201 W/m² 14,3 °C 19,8 °C 0,0 km/h (0 Bft)
28/04/2026 19:00 18,2 °C 74 % 1013,3 hPa 0,0 mm 0,0 km/h (0 Bft) - - 0,00 h 0,127 mm 66 W/m² 13,6 °C 18,2 °C 0,0 km/h (0 Bft)
28/04/2026 20:00 16,6 °C 79 % 1013,4 hPa 0,0 mm 0,0 km/h (0 Bft) - - 0,08 h 0,051 mm 17 W/m² 12,9 °C 16,6 °C 0,0 km/h (0 Bft)
28/04/2026 21:00 15,1 °C 85 % 1013,7 hPa 0,0 mm 0,0 km/h (0 Bft) - - 0,00 h 0,000 mm 0 W/m² 12,5 °C 15,1 °C 0,0 km/h (0 Bft)
28/04/2026 22:00 14,2 °C 88 % 1013,6 hPa 0,0 mm 0,0 km/h (0 Bft) - - 0,00 h 0,025 mm 0 W/m² 12,3 °C 14,2 °C 0,0 km/h (0 Bft)
28/04/2026 23:00 13,7 °C 89 % 1013,1 hPa 0,0 mm 0,0 km/h (0 Bft) - - 0,00 h 0,000 mm 0 W/m² 11,9 °C 13,7 °C 0,0 km/h (0 Bft)
29/04/2026 00:00 13,4 °C 83 % 1013,3 hPa 0,0 mm 0,0 km/h (0 Bft) - - 0,00 h 0,000 mm 0 W/m² 10,6 °C 13,4 °C 0,0 km/h (0 Bft)
29/04/2026 01:00 12,6 °C 85 % 1013,8 hPa 0,0 mm 0,0 km/h (0 Bft) - - 0,00 h 0,025 mm 0 W/m² 10,1 °C 12,6 °C 0,0 km/h (0 Bft)
29/04/2026 02:00 12,1 °C 85 % 1013,7 hPa 0,0 mm 0,0 km/h (0 Bft) - - 0,00 h 0,000 mm 0 W/m² 9,6 °C 12,1 °C 0,0 km/h (0 Bft)
29/04/2026 03:00 12,0 °C 85 % 1013,4 hPa 0,0 mm 0,0 km/h (0 Bft) - - 0,00 h 0,000 mm 0 W/m² 9,6 °C 12,0 °C 0,0 km/h (0 Bft)
29/04/2026 04:00 12,0 °C 87 % 1013,4 hPa 0,0 mm 0,0 km/h (0 Bft) - - 0,00 h 0,000 mm 0 W/m² 10,0 °C 12,0 °C 0,0 km/h (0 Bft)
29/04/2026 05:00 11,9 °C 82 % 1013,1 hPa 0,0 mm 0,0 km/h (0 Bft) - - 0,00 h 0,000 mm 0 W/m² 8,9 °C 11,9 °C 0,0 km/h (0 Bft)
29/04/2026 06:00 11,7 °C 80 % 1013,2 hPa 0,0 mm 0,0 km/h (0 Bft) - - 0,00 h 0,025 mm 11 W/m² 8,3 °C 11,7 °C 0,0 km/h (0 Bft)
29/04/2026 07:00 11,6 °C 80 % 1013,3 hPa 0,0 mm 0,0 km/h (0 Bft) - - 0,00 h 0,000 mm 24 W/m² 8,3 °C 11,6 °C 0,0 km/h (0 Bft)
29/04/2026 08:00 13,3 °C 79 % 1013,8 hPa 0,0 mm 0,0 km/h (0 Bft) - - 0,08 h 0,025 mm 71 W/m² 9,7 °C 13,3 °C 0,0 km/h (0 Bft)
29/04/2026 09:00 16,7 °C 69 % 1014,0 hPa 0,0 mm 0,0 km/h (0 Bft) - - 1,00 h 0,051 mm 458 W/m² 10,9 °C 16,7 °C 0,0 km/h (0 Bft)
29/04/2026 10:00 21,6 °C 55 % 1013,8 hPa 0,0 mm 0,0 km/h (0 Bft) - - 1,00 h 0,254 mm 618 W/m² 12,2 °C 21,6 °C 0,0 km/h (0 Bft)
29/04/2026 11:00 22,9 °C 55 % 1013,9 hPa 0,0 mm 0,0 km/h (0 Bft) - - 1,00 h 0,381 mm 744 W/m² 13,4 °C 22,9 °C 0,0 km/h (0 Bft)
29/04/2026 12:00 23,0 °C 57 % 1014,2 hPa 0,0 mm 0,0 km/h (0 Bft) - - 1,00 h 0,457 mm 827 W/m² 14,1 °C 23,0 °C 0,0 km/h (0 Bft)
29/04/2026 13:00 23,1 °C 55 % 1014,3 hPa 0,0 mm 0,0 km/h (0 Bft) - - 1,00 h 0,508 mm 863 W/m² 13,5 °C 23,1 °C 0,0 km/h (0 Bft)
29/04/2026 14:00 23,7 °C 51 % 1014,3 hPa 0,0 mm 0,0 km/h (0 Bft) - - 1,00 h 0,533 mm 835 W/m² 12,9 °C 23,7 °C 0,0 km/h (0 Bft)
29/04/2026 15:00 23,8 °C 46 % 1013,9 hPa 0,0 mm 0,0 km/h (0 Bft) - - 1,00 h 0,508 mm 741 W/m² 11,5 °C 23,8 °C 0,0 km/h (0 Bft)
29/04/2026 16:00 23,3 °C 46 % 1013,6 hPa 0,0 mm 0,0 km/h (0 Bft) - - 1,00 h 0,457 mm 613 W/m² 10,9 °C 23,3 °C 0,0 km/h (0 Bft)
29/04/2026 17:00 22,8 °C 42 % 1013,4 hPa 0,0 mm 0,0 km/h (0 Bft) - - 1,00 h 0,381 mm 449 W/m² 9,2 °C 22,8 °C 0,0 km/h (0 Bft)
29/04/2026 18:00 22,2 °C 43 % 1013,3 hPa 0,0 mm 0,0 km/h (0 Bft) - - 0,83 h 0,279 mm 237 W/m² 9,1 °C 22,2 °C 0,0 km/h (0 Bft)
29/04/2026 19:00 20,3 °C 37 % 1013,4 hPa 0,0 mm 0,0 km/h (0 Bft) - - 0,00 h 0,152 mm 44 W/m² 5,0 °C 20,3 °C 0,0 km/h (0 Bft)
29/04/2026 20:00 18,1 °C 37 % 1013,4 hPa 0,0 mm 0,0 km/h (0 Bft) - - 0,00 h 0,051 mm 12 W/m² 3,4 °C 18,1 °C 0,0 km/h (0 Bft)
29/04/2026 21:00 16,6 °C 44 % 1013,4 hPa 0,0 mm 0,0 km/h (0 Bft) - - 0,00 h 0,025 mm 0 W/m² 4,2 °C 16,6 °C 0,0 km/h (0 Bft)
29/04/2026 22:00 15,8 °C 52 % 1014,2 hPa 0,0 mm 0,0 km/h (0 Bft) - - 0,00 h 0,051 mm 0 W/m² 6,1 °C 15,8 °C 0,0 km/h (0 Bft)
29/04/2026 23:00 15,6 °C 58 % 1014,5 hPa 0,0 mm 0,0 km/h (0 Bft) - - 0,00 h 0,051 mm 0 W/m² 7,3 °C 15,6 °C 0,0 km/h (0 Bft)
30/04/2026 00:00 15,4 °C 63 % 1014,8 hPa 0,0 mm 0,0 km/h (0 Bft) - - 0,00 h 0,025 mm 0 W/m² 8,5 °C 15,4 °C 0,0 km/h (0 Bft)
30/04/2026 01:00 15,3 °C 63 % 1014,7 hPa 0,0 mm 0,0 km/h (0 Bft) - - 0,00 h 0,025 mm 0 W/m² 8,3 °C 15,3 °C 0,0 km/h (0 Bft)
30/04/2026 02:00 15,5 °C 57 % 1014,8 hPa 0,0 mm 0,0 km/h (0 Bft) - - 0,00 h 0,025 mm 0 W/m² 7,1 °C 15,5 °C 0,0 km/h (0 Bft)
30/04/2026 03:00 14,9 °C 62 % 1014,8 hPa 0,0 mm 0,0 km/h (0 Bft) - - 0,00 h 0,025 mm 0 W/m² 7,7 °C 14,9 °C 0,0 km/h (0 Bft)
30/04/2026 04:00 14,7 °C 64 % 1015,2 hPa 0,0 mm 0,0 km/h (0 Bft) - - 0,00 h 0,025 mm 0 W/m² 7,9 °C 14,7 °C 0,0 km/h (0 Bft)
30/04/2026 05:00 14,6 °C 65 % 1015,3 hPa 0,0 mm 0,0 km/h (0 Bft) - - 0,00 h 0,025 mm 0 W/m² 8,1 °C 14,6 °C 0,0 km/h (0 Bft)
30/04/2026 06:00 14,1 °C 67 % 1015,6 hPa 0,0 mm 0,0 km/h (0 Bft) - - 0,00 h 0,025 mm 10 W/m² 8,1 °C 14,1 °C 0,0 km/h (0 Bft)
30/04/2026 07:00 14,0 °C 68 % 1016,5 hPa 0,0 mm 0,0 km/h (0 Bft) - - 0,00 h 0,000 mm 33 W/m² 8,2 °C 14,0 °C 0,0 km/h (0 Bft)
30/04/2026 08:00 16,2 °C 66 % 1017,0 hPa 0,0 mm 0,0 km/h (0 Bft) - - 0,07 h 0,025 mm 100 W/m² 9,7 °C 16,2 °C 0,0 km/h (0 Bft)
30/04/2026 09:00 19,2 °C 72 % 1017,3 hPa 0,0 mm 0,0 km/h (0 Bft) - - 0,42 h 0,051 mm 331 W/m² 13,9 °C 19,2 °C 0,0 km/h (0 Bft)
30/04/2026 10:00 21,0 °C 62 % 1017,9 hPa 0,0 mm 0,0 km/h (0 Bft) - - 0,48 h 0,203 mm 409 W/m² 13,5 °C 21,0 °C 0,0 km/h (0 Bft)
30/04/2026 11:00 20,9 °C 64 % 1018,3 hPa 0,0 mm 0,0 km/h (0 Bft) - - 0,37 h 0,254 mm 499 W/m² 13,7 °C 20,9 °C 0,0 km/h (0 Bft)
30/04/2026 12:00 23,3 °C 60 % 1018,2 hPa 0,0 mm 0,0 km/h (0 Bft) - - 1,00 h 0,305 mm 835 W/m² 15,1 °C 23,3 °C 0,0 km/h (0 Bft)
30/04/2026 13:00 23,5 °C 57 % 1018,4 hPa 0,0 mm 0,0 km/h (0 Bft) - - 1,00 h 0,508 mm 757 W/m² 14,4 °C 23,5 °C 0,0 km/h (0 Bft)
30/04/2026 14:00 23,2 °C 53 % 1018,5 hPa 0,0 mm 0,0 km/h (0 Bft) - - 0,93 h 0,457 mm 692 W/m² 13,2 °C 23,2 °C 0,0 km/h (0 Bft)
30/04/2026 15:00 23,1 °C 51 % 1018,5 hPa 0,0 mm 0,0 km/h (0 Bft) - - 0,85 h 0,432 mm 602 W/m² 12,4 °C 23,1 °C 0,0 km/h (0 Bft)
30/04/2026 16:00 21,8 °C 54 % 1018,7 hPa 0,0 mm 0,0 km/h (0 Bft) - - 0,40 h 0,356 mm 312 W/m² 11,9 °C 21,8 °C 0,0 km/h (0 Bft)
30/04/2026 17:00 20,4 °C 57 % 1018,8 hPa 0,0 mm 0,0 km/h (0 Bft) - - 0,00 h 0,178 mm 102 W/m² 11,7 °C 20,4 °C 0,0 km/h (0 Bft)
30/04/2026 18:00 19,7 °C 59 % 1019,1 hPa 0,0 mm 0,0 km/h (0 Bft) - - 0,00 h 0,076 mm 94 W/m² 11,4 °C 19,7 °C 0,0 km/h (0 Bft)
30/04/2026 19:00 19,6 °C 59 % 1019,2 hPa 0,0 mm 0,0 km/h (0 Bft) - - 0,17 h 0,051 mm 77 W/m² 11,3 °C 19,6 °C 0,0 km/h (0 Bft)
30/04/2026 20:00 18,7 °C 62 % 1019,1 hPa 0,0 mm 0,0 km/h (0 Bft) - - 0,00 h 0,051 mm 10 W/m² 11,2 °C 18,7 °C 0,0 km/h (0 Bft)
30/04/2026 21:00 17,4 °C 68 % 1019,2 hPa 0,0 mm 0,0 km/h (0 Bft) - - 0,00 h 0,000 mm 0 W/m² 11,3 °C 17,4 °C 0,0 km/h (0 Bft)
30/04/2026 22:00 16,5 °C 72 % 1019,6 hPa 0,0 mm 0,0 km/h (0 Bft) - - 0,00 h 0,025 mm 0 W/m² 11,3 °C 16,5 °C 0,0 km/h (0 Bft)
30/04/2026 23:00 15,7 °C 71 % 1019,8 hPa 0,0 mm 0,0 km/h (0 Bft) - - 0,00 h 0,025 mm 0 W/m² 10,5 °C 15,7 °C 0,0 km/h (0 Bft)
01/05/2026 00:00 15,1 °C 73 % 1019,6 hPa 0,0 mm 0,0 km/h (0 Bft) - - 0,00 h 0,000 mm 0 W/m² 10,2 °C 15,1 °C 0,0 km/h (0 Bft)
01/05/2026 01:00 14,7 °C 72 % 1020,1 hPa 0,0 mm 0,0 km/h (0 Bft) - - 0,00 h 0,025 mm 0 W/m² 9,7 °C 14,7 °C 0,0 km/h (0 Bft)
01/05/2026 02:00 14,2 °C 73 % 1020,4 hPa 0,0 mm 0,0 km/h (0 Bft) - - 0,00 h 0,025 mm 0 W/m² 9,5 °C 14,2 °C 0,0 km/h (0 Bft)
01/05/2026 03:00 13,6 °C 75 % 1020,7 hPa 0,0 mm 0,0 km/h (0 Bft) - - 0,00 h 0,025 mm 0 W/m² 9,2 °C 13,6 °C 0,0 km/h (0 Bft)
01/05/2026 04:00 13,1 °C 77 % 1021,0 hPa 0,0 mm 0,0 km/h (0 Bft) - - 0,00 h 0,025 mm 0 W/m² 9,1 °C 13,1 °C 0,0 km/h (0 Bft)
01/05/2026 05:00 13,0 °C 77 % 1021,6 hPa 0,0 mm 0,0 km/h (0 Bft) - - 0,00 h 0,025 mm 0 W/m² 9,1 °C 13,0 °C 0,0 km/h (0 Bft)
01/05/2026 06:00 13,0 °C 80 % 1022,2 hPa 0,0 mm 0,0 km/h (0 Bft) - - 0,10 h 0,000 mm 16 W/m² 9,6 °C 13,0 °C 0,0 km/h (0 Bft)
01/05/2026 07:00 13,7 °C 80 % 1023,0 hPa 0,0 mm 0,0 km/h (0 Bft) - - 0,00 h 0,000 mm 31 W/m² 10,3 °C 13,7 °C 0,0 km/h (0 Bft)
01/05/2026 08:00 14,7 °C 76 % 1023,6 hPa 0,0 mm 0,0 km/h (0 Bft) - - 0,07 h 0,025 mm 88 W/m² 10,5 °C 14,7 °C 0,0 km/h (0 Bft)
01/05/2026 09:00 17,6 °C 65 % 1023,8 hPa 0,0 mm 0,0 km/h (0 Bft) - - 1,00 h 0,051 mm 458 W/m² 10,9 °C 17,6 °C 0,0 km/h (0 Bft)
01/05/2026 10:00 19,5 °C 58 % 1024,0 hPa 0,0 mm 0,0 km/h (0 Bft) - - 1,00 h 0,254 mm 615 W/m² 11,0 °C 19,5 °C 0,0 km/h (0 Bft)
01/05/2026 11:00 20,7 °C 55 % 1024,3 hPa 0,0 mm 0,0 km/h (0 Bft) - - 1,00 h 0,356 mm 736 W/m² 11,2 °C 20,7 °C 0,0 km/h (0 Bft)
01/05/2026 12:00 20,7 °C 53 % 1024,5 hPa 0,0 mm 0,0 km/h (0 Bft) - - 1,00 h 0,432 mm 804 W/m² 10,6 °C 20,7 °C 0,0 km/h (0 Bft)
01/05/2026 13:00 20,7 °C 52 % 1024,5 hPa 0,0 mm 0,0 km/h (0 Bft) - - 1,00 h 0,457 mm 836 W/m² 10,3 °C 20,7 °C 0,0 km/h (0 Bft)
01/05/2026 14:00 20,9 °C 51 % 1024,3 hPa 0,0 mm 0,0 km/h (0 Bft) - - 1,00 h 0,483 mm 805 W/m² 10,4 °C 20,9 °C 0,0 km/h (0 Bft)
01/05/2026 15:00 20,9 °C 51 % 1023,9 hPa 0,0 mm 0,0 km/h (0 Bft) - - 1,00 h 0,457 mm 725 W/m² 10,5 °C 20,9 °C 0,0 km/h (0 Bft)
01/05/2026 16:00 21,2 °C 49 % 1023,4 hPa 0,0 mm 0,0 km/h (0 Bft) - - 1,00 h 0,432 mm 624 W/m² 10,0 °C 21,2 °C 0,0 km/h (0 Bft)
01/05/2026 17:00 21,2 °C 49 % 1022,9 hPa 0,0 mm 0,0 km/h (0 Bft) - - 1,00 h 0,381 mm 466 W/m² 10,1 °C 21,2 °C 0,0 km/h (0 Bft)
01/05/2026 18:00 20,2 °C 52 % 1022,6 hPa 0,0 mm 0,0 km/h (0 Bft) - - 0,88 h 0,279 mm 248 W/m² 10,0 °C 20,2 °C 0,0 km/h (0 Bft)
01/05/2026 19:00 18,8 °C 56 % 1022,5 hPa 0,0 mm 0,0 km/h (0 Bft) - - 0,00 h 0,152 mm 50 W/m² 9,8 °C 18,8 °C 0,0 km/h (0 Bft)
01/05/2026 20:00 17,0 °C 62 % 1022,7 hPa 0,0 mm 0,0 km/h (0 Bft) - - 0,05 h 0,025 mm 15 W/m² 9,6 °C 17,0 °C 0,0 km/h (0 Bft)
01/05/2026 21:00 15,5 °C 69 % 1023,1 hPa 0,0 mm 0,0 km/h (0 Bft) - - 0,00 h 0,025 mm 0 W/m² 9,8 °C 15,5 °C 0,0 km/h (0 Bft)
01/05/2026 22:00 14,5 °C 72 % 1023,5 hPa 0,0 mm 0,0 km/h (0 Bft) - - 0,00 h 0,025 mm 0 W/m² 9,5 °C 14,5 °C 0,0 km/h (0 Bft)
01/05/2026 23:00 14,1 °C 72 % 1023,8 hPa 0,0 mm 0,0 km/h (0 Bft) - - 0,00 h 0,025 mm 0 W/m² 9,2 °C 14,1 °C 0,0 km/h (0 Bft)
02/05/2026 00:00 14,2 °C 72 % 1023,9 hPa 0,0 mm 0,0 km/h (0 Bft) - - 0,00 h 0,025 mm 0 W/m² 9,2 °C 14,2 °C 0,0 km/h (0 Bft)
02/05/2026 01:00 14,3 °C 70 % 1024,1 hPa 0,0 mm 0,0 km/h (0 Bft) - - 0,00 h 0,025 mm 0 W/m² 8,8 °C 14,3 °C 0,0 km/h (0 Bft)
02/05/2026 02:00 13,9 °C 70 % 1024,1 hPa 0,0 mm 0,0 km/h (0 Bft) - - 0,00 h 0,025 mm 0 W/m² 8,5 °C 13,9 °C 0,0 km/h (0 Bft)
02/05/2026 03:00 13,7 °C 70 % 1024,0 hPa 0,0 mm 0,0 km/h (0 Bft) - - 0,00 h 0,025 mm 0 W/m² 8,2 °C 13,7 °C 0,0 km/h (0 Bft)
02/05/2026 04:00 13,4 °C 70 % 1024,0 hPa 0,0 mm 0,0 km/h (0 Bft) - - 0,00 h 0,025 mm 0 W/m² 8,1 °C 13,4 °C 0,0 km/h (0 Bft)
02/05/2026 05:00 12,5 °C 74 % 1024,2 hPa 0,0 mm 0,0 km/h (0 Bft) - - 0,00 h 0,025 mm 0 W/m² 7,9 °C 12,5 °C 0,0 km/h (0 Bft)
02/05/2026 06:00 11,6 °C 75 % 1024,2 hPa 0,0 mm 0,0 km/h (0 Bft) - - 0,00 h 0,025 mm 8 W/m² 7,4 °C 11,6 °C 0,0 km/h (0 Bft)
02/05/2026 07:00 11,6 °C 75 % 1024,5 hPa 0,0 mm 0,0 km/h (0 Bft) - - 0,00 h 0,000 mm 22 W/m² 7,4 °C 11,6 °C 0,0 km/h (0 Bft)
02/05/2026 08:00 14,2 °C 68 % 1024,9 hPa 0,0 mm 0,0 km/h (0 Bft) - - 0,03 h 0,025 mm 57 W/m² 8,4 °C 14,2 °C 0,0 km/h (0 Bft)
02/05/2026 09:00 18,2 °C 51 % 1025,1 hPa 0,0 mm 0,0 km/h (0 Bft) - - 1,00 h 0,051 mm 482 W/m² 7,9 °C 18,2 °C 0,0 km/h (0 Bft)
02/05/2026 10:00 21,9 °C 38 % 1024,8 hPa 0,0 mm 0,0 km/h (0 Bft) - - 1,00 h 0,279 mm 644 W/m² 6,8 °C 21,9 °C 0,0 km/h (0 Bft)
02/05/2026 11:00 23,3 °C 32 % 1024,7 hPa 0,0 mm 0,0 km/h (0 Bft) - - 1,00 h 0,381 mm 768 W/m² 5,8 °C 23,3 °C 0,0 km/h (0 Bft)
02/05/2026 12:00 24,3 °C 32 % 1024,4 hPa 0,0 mm 0,0 km/h (0 Bft) - - 1,00 h 0,483 mm 855 W/m² 6,7 °C 24,3 °C 0,0 km/h (0 Bft)
02/05/2026 13:00 22,9 °C 34 % 1024,0 hPa 0,0 mm 0,0 km/h (0 Bft) - - 1,00 h 0,533 mm 810 W/m² 6,0 °C 22,9 °C 0,0 km/h (0 Bft)
02/05/2026 14:00 22,8 °C 36 % 1023,7 hPa 0,0 mm 0,0 km/h (0 Bft) - - 1,00 h 0,483 mm 815 W/m² 6,8 °C 22,8 °C 0,0 km/h (0 Bft)
02/05/2026 15:00 23,6 °C 35 % 1023,0 hPa 0,0 mm 0,0 km/h (0 Bft) - - 1,00 h 0,508 mm 775 W/m² 7,4 °C 23,6 °C 0,0 km/h (0 Bft)
02/05/2026 16:00 22,9 °C 35 % 1022,3 hPa 0,0 mm 0,0 km/h (0 Bft) - - 1,00 h 0,483 mm 635 W/m² 6,8 °C 22,9 °C 0,0 km/h (0 Bft)
02/05/2026 17:00 21,7 °C 38 % 1021,8 hPa 0,0 mm 0,0 km/h (0 Bft) - - 0,98 h 0,381 mm 427 W/m² 6,9 °C 21,7 °C 0,0 km/h (0 Bft)
02/05/2026 18:00 20,2 °C 42 % 1021,2 hPa 0,0 mm 0,0 km/h (0 Bft) - - 0,53 h 0,254 mm 203 W/m² 6,8 °C 20,2 °C 0,0 km/h (0 Bft)
02/05/2026 19:00 18,5 °C 46 % 1020,8 hPa 0,0 mm 0,0 km/h (0 Bft) - - 0,00 h 0,127 mm 58 W/m² 6,6 °C 18,5 °C 0,0 km/h (0 Bft)
02/05/2026 20:00 16,4 °C 54 % 1020,6 hPa 0,0 mm 0,0 km/h (0 Bft) - - 0,00 h 0,051 mm 16 W/m² 7,0 °C 16,4 °C 0,0 km/h (0 Bft)
02/05/2026 21:00 14,9 °C 58 % 1020,8 hPa 0,0 mm 0,0 km/h (0 Bft) - - 0,00 h 0,025 mm 0 W/m² 6,8 °C 14,9 °C 0,0 km/h (0 Bft)
02/05/2026 22:00 14,4 °C 59 % 1020,8 hPa 0,0 mm 0,0 km/h (0 Bft) - - 0,00 h 0,025 mm 0 W/m² 6,6 °C 14,4 °C 0,0 km/h (0 Bft)
02/05/2026 23:00 14,0 °C 61 % 1020,3 hPa 0,0 mm 0,0 km/h (0 Bft) - - 0,00 h 0,025 mm 0 W/m² 6,5 °C 14,0 °C 0,0 km/h (0 Bft)
03/05/2026 00:00 13,7 °C 62 % 1020,0 hPa 0,0 mm 0,0 km/h (0 Bft) - - 0,00 h 0,025 mm 0 W/m² 6,5 °C 13,7 °C 0,0 km/h (0 Bft)
03/05/2026 01:00 13,8 °C 59 % 1019,7 hPa 0,0 mm 0,0 km/h (0 Bft) - - 0,00 h 0,025 mm 0 W/m² 5,9 °C 13,8 °C 0,0 km/h (0 Bft)
03/05/2026 02:00 13,6 °C 58 % 1019,4 hPa 0,0 mm 0,0 km/h (0 Bft) - - 0,00 h 0,025 mm 0 W/m² 5,4 °C 13,6 °C 0,0 km/h (0 Bft)
03/05/2026 03:00 13,7 °C 56 % 1018,8 hPa 0,0 mm 0,0 km/h (0 Bft) - - 0,00 h 0,025 mm 0 W/m² 5,2 °C 13,7 °C 0,0 km/h (0 Bft)
03/05/2026 04:00 13,3 °C 58 % 1018,7 hPa 0,0 mm 0,0 km/h (0 Bft) - - 0,00 h 0,025 mm 0 W/m² 5,1 °C 13,3 °C 0,0 km/h (0 Bft)
03/05/2026 05:00 13,2 °C 58 % 1018,5 hPa 0,0 mm 0,0 km/h (0 Bft) - - 0,00 h 0,025 mm 0 W/m² 5,2 °C 13,2 °C 0,0 km/h (0 Bft)
03/05/2026 06:00 13,2 °C 59 % 1018,6 hPa 0,0 mm 0,0 km/h (0 Bft) - - 0,00 h 0,025 mm 10 W/m² 5,4 °C 13,2 °C 0,0 km/h (0 Bft)
03/05/2026 07:00 13,4 °C 61 % 1018,6 hPa 0,0 mm 0,0 km/h (0 Bft) - - 0,00 h 0,000 mm 50 W/m² 6,0 °C 13,4 °C 0,0 km/h (0 Bft)
03/05/2026 08:00 14,3 °C 68 % 1018,8 hPa 0,0 mm 0,0 km/h (0 Bft) - - 0,03 h 0,025 mm 122 W/m² 8,4 °C 14,3 °C 0,0 km/h (0 Bft)
03/05/2026 09:00 17,2 °C 65 % 1019,1 hPa 0,0 mm 0,0 km/h (0 Bft) - - 0,73 h 0,076 mm 417 W/m² 10,4 °C 17,2 °C 0,0 km/h (0 Bft)
03/05/2026 10:00 20,6 °C 57 % 1019,2 hPa 0,0 mm 0,0 km/h (0 Bft) - - 0,92 h 0,229 mm 613 W/m² 11,8 °C 20,6 °C 0,0 km/h (0 Bft)
03/05/2026 11:00 21,8 °C 55 % 1019,2 hPa 0,0 mm 0,0 km/h (0 Bft) - - 0,92 h 0,356 mm 690 W/m² 12,3 °C 21,8 °C 0,0 km/h (0 Bft)
03/05/2026 12:00 21,2 °C 54 % 1019,1 hPa 0,0 mm 0,0 km/h (0 Bft) - - 0,62 h 0,406 mm 506 W/m² 11,6 °C 21,2 °C 0,0 km/h (0 Bft)
03/05/2026 13:00 19,9 °C 61 % 1018,9 hPa 0,0 mm 0,0 km/h (0 Bft) - - 0,08 h 0,305 mm 394 W/m² 12,1 °C 19,9 °C 0,0 km/h (0 Bft)
03/05/2026 14:00 19,9 °C 59 % 1018,8 hPa 0,0 mm 0,0 km/h (0 Bft) - - 0,23 h 0,229 mm 432 W/m² 11,6 °C 19,9 °C 0,0 km/h (0 Bft)
03/05/2026 15:00 20,9 °C 49 % 1018,1 hPa 0,0 mm 0,0 km/h (0 Bft) - - 0,70 h 0,254 mm 504 W/m² 9,8 °C 20,9 °C 0,0 km/h (0 Bft)
03/05/2026 16:00 20,1 °C 53 % 1017,4 hPa 0,0 mm 0,0 km/h (0 Bft) - - 0,18 h 0,305 mm 310 W/m² 10,3 °C 20,1 °C 0,0 km/h (0 Bft)
03/05/2026 17:00 19,0 °C 63 % 1017,3 hPa 0,0 mm 0,0 km/h (0 Bft) - - 0,27 h 0,178 mm 259 W/m² 11,7 °C 19,0 °C 0,0 km/h (0 Bft)
03/05/2026 18:00 18,0 °C 73 % 1017,2 hPa 0,0 mm 0,0 km/h (0 Bft) - - 0,00 h 0,152 mm 129 W/m² 13,0 °C 18,0 °C 0,0 km/h (0 Bft)
03/05/2026 19:00 17,0 °C 78 % 1017,0 hPa 0,0 mm 0,0 km/h (0 Bft) - - 0,00 h 0,076 mm 55 W/m² 13,1 °C 17,0 °C 0,0 km/h (0 Bft)
03/05/2026 20:00 15,9 °C 81 % 1017,0 hPa 0,0 mm 0,0 km/h (0 Bft) - - 0,00 h 0,025 mm 14 W/m² 12,7 °C 15,9 °C 0,0 km/h (0 Bft)
03/05/2026 21:00 15,0 °C 85 % 1017,1 hPa 0,0 mm 0,0 km/h (0 Bft) - - 0,00 h 0,000 mm 0 W/m² 12,5 °C 15,0 °C 0,0 km/h (0 Bft)
03/05/2026 22:00 14,4 °C 87 % 1016,8 hPa 0,0 mm 0,0 km/h (0 Bft) - - 0,00 h 0,000 mm 0 W/m² 12,3 °C 14,4 °C 0,0 km/h (0 Bft)
03/05/2026 23:00 13,8 °C 90 % 1016,5 hPa 0,0 mm 0,0 km/h (0 Bft) - - 0,00 h 0,000 mm 0 W/m² 12,1 °C 13,8 °C 0,0 km/h (0 Bft)
Min-Date _ 02/05/26 02/05/26 28/04/26 - 27/04/26 - - - - 29/04/26 02/05/26 27/04/26
_ Min-Heure 06:57 11:18 23:45 - 00:00 - - - - 20:33 06:57 00:00
Minimum _ 11,2 °C 31 % 1012,9 hPa - 0,0 km/h (0 Bft) - - - - 2,7 °C 11,2 °C 0,0 km/h (0 Bft)
Max-Date _ 02/05/26 28/04/26 02/05/26 27/04/26 27/04/26 - 27/04/26 28/04/26 28/04/26 28/04/26 02/05/26 29/04/26
_ Max-Heure 12:44 08:23 09:00 00:00 00:00 - 06:40 14:00 13:33 13:44 12:44 08:08
Maximum _ 24,6 °C 98 % 1025,2 hPa 0,0 mm 0,0 km/h
- - (0 Bft)
- 0,02 h 0,533 mm 995 W/m² 16,4 °C 24,6 °C 1,6 km/h
S (1 Bft)
Moyenne _ 17,2 °C 68 % 1018,2 hPa #0,0 mm 0,0 km/h (0 Bft) - - #57:48 h #25,841 mm 397 W/m² 10,6 °C 17,2 °C 0,0 km/h (0 Bft)
Roquefort les pins